Terminal Aerodrome Forecast
Issued by NWS Twin Cities, MN

Home | Current Version | Previous Version | Text Only | Print | Product List | Glossary On
Versions: 1 2 3 4 5 6 7 8 9 10 11 12 13 14 15 16
093
FTUS43 KMPX 110543
TAFSTC
TAF
KSTC 110543Z 1106/1206 08007KT 3SM -SN SCT015 OVC030
     FM111200 08008KT 1SM -SN SCT007 OVC015
     FM111600 07006KT 2SM -SN OVC012
     FM112200 35005KT 3SM -SN OVC020
     FM120300 30008KT P6SM OVC025=

USA.gov is the U.S. government's official web portal to all federal, state and local government web resources and services.